sensor_id;sensor_type;location;lat;lon;timestamp;P1;durP1;ratioP1;P2;durP2;ratioP2
2338;SDS011;1180;51.438;6.978;2023-05-20T00:00:06;3.63;;;2.50;;
2338;SDS011;1180;51.438;6.978;2023-05-20T00:02:33;2.33;;;2.13;;
2338;SDS011;1180;51.438;6.978;2023-05-20T00:04:59;3.70;;;2.23;;
2338;SDS011;1180;51.438;6.978;2023-05-20T00:07:25;2.80;;;2.33;;
2338;SDS011;1180;51.438;6.978;2023-05-20T00:09:51;4.50;;;2.27;;
2338;SDS011;1180;51.438;6.978;2023-05-20T00:12:16;3.87;;;2.30;;
2338;SDS011;1180;51.438;6.978;2023-05-20T00:14:42;2.40;;;1.90;;
2338;SDS011;1180;51.438;6.978;2023-05-20T00:17:08;3.30;;;2.60;;
2338;SDS011;1180;51.438;6.978;2023-05-20T00:19:33;3.00;;;2.23;;
2338;SDS011;1180;51.438;6.978;2023-05-20T00:21:59;3.07;;;2.37;;
2338;SDS011;1180;51.438;6.978;2023-05-20T00:24:25;2.50;;;2.30;;
2338;SDS011;1180;51.438;6.978;2023-05-20T00:26:51;6.13;;;2.83;;
2338;SDS011;1180;51.438;6.978;2023-05-20T00:29:18;2.43;;;2.23;;
2338;SDS011;1180;51.438;6.978;2023-05-20T00:31:46;2.40;;;2.20;;
2338;SDS011;1180;51.438;6.978;2023-05-20T00:34:12;5.03;;;2.20;;
2338;SDS011;1180;51.438;6.978;2023-05-20T00:36:38;4.80;;;2.47;;
2338;SDS011;1180;51.438;6.978;2023-05-20T00:39:03;3.23;;;2.50;;
2338;SDS011;1180;51.438;6.978;2023-05-20T00:41:29;2.83;;;2.00;;
2338;SDS011;1180;51.438;6.978;2023-05-20T00:43:56;3.47;;;2.33;;
2338;SDS011;1180;51.438;6.978;2023-05-20T00:46:22;2.47;;;2.20;;
2338;SDS011;1180;51.438;6.978;2023-05-20T00:48:50;5.17;;;2.03;;
2338;SDS011;1180;51.438;6.978;2023-05-20T00:51:17;2.47;;;2.07;;
2338;SDS011;1180;51.438;6.978;2023-05-20T00:53:44;3.40;;;1.90;;
2338;SDS011;1180;51.438;6.978;2023-05-20T00:56:11;3.73;;;2.60;;
2338;SDS011;1180;51.438;6.978;2023-05-20T00:58:37;2.70;;;2.10;;
2338;SDS011;1180;51.438;6.978;2023-05-20T01:01:04;3.10;;;2.27;;
2338;SDS011;1180;51.438;6.978;2023-05-20T01:03:30;2.40;;;1.93;;
2338;SDS011;1180;51.438;6.978;2023-05-20T01:05:56;5.70;;;2.70;;
2338;SDS011;1180;51.438;6.978;2023-05-20T01:08:22;2.27;;;2.07;;
2338;SDS011;1180;51.438;6.978;2023-05-20T01:10:58;3.30;;;1.93;;
2338;SDS011;1180;51.438;6.978;2023-05-20T01:16:30;2.00;;;1.80;;
2338;SDS011;1180;51.438;6.978;2023-05-20T01:18:58;7.63;;;2.70;;
2338;SDS011;1180;51.438;6.978;2023-05-20T01:21:24;3.83;;;2.57;;
2338;SDS011;1180;51.438;6.978;2023-05-20T01:23:54;3.87;;;2.63;;
2338;SDS011;1180;51.438;6.978;2023-05-20T01:26:20;3.10;;;2.40;;
2338;SDS011;1180;51.438;6.978;2023-05-20T01:28:50;4.37;;;2.27;;
2338;SDS011;1180;51.438;6.978;2023-05-20T01:31:17;2.70;;;2.20;;
2338;SDS011;1180;51.438;6.978;2023-05-20T01:33:49;3.70;;;2.60;;
2338;SDS011;1180;51.438;6.978;2023-05-20T01:36:17;2.23;;;1.87;;
2338;SDS011;1180;51.438;6.978;2023-05-20T01:38:45;4.20;;;2.60;;
2338;SDS011;1180;51.438;6.978;2023-05-20T01:41:13;4.23;;;2.77;;
2338;SDS011;1180;51.438;6.978;2023-05-20T01:43:40;2.40;;;2.20;;
2338;SDS011;1180;51.438;6.978;2023-05-20T01:46:07;3.40;;;2.40;;
2338;SDS011;1180;51.438;6.978;2023-05-20T01:48:33;4.57;;;2.57;;
2338;SDS011;1180;51.438;6.978;2023-05-20T01:50:59;3.80;;;2.60;;
2338;SDS011;1180;51.438;6.978;2023-05-20T01:53:24;4.20;;;2.50;;
2338;SDS011;1180;51.438;6.978;2023-05-20T01:55:51;2.23;;;2.03;;
2338;SDS011;1180;51.438;6.978;2023-05-20T01:58:16;5.30;;;2.77;;
2338;SDS011;1180;51.438;6.978;2023-05-20T02:00:42;5.07;;;2.77;;
2338;SDS011;1180;51.438;6.978;2023-05-20T02:03:08;3.83;;;2.20;;
2338;SDS011;1180;51.438;6.978;2023-05-20T02:05:33;4.03;;;2.30;;
2338;SDS011;1180;51.438;6.978;2023-05-20T02:07:59;3.70;;;3.10;;
2338;SDS011;1180;51.438;6.978;2023-05-20T02:10:25;3.03;;;2.50;;
2338;SDS011;1180;51.438;6.978;2023-05-20T02:12:51;4.07;;;2.27;;
2338;SDS011;1180;51.438;6.978;2023-05-20T02:15:16;3.00;;;2.10;;
2338;SDS011;1180;51.438;6.978;2023-05-20T02:17:42;4.10;;;2.37;;
2338;SDS011;1180;51.438;6.978;2023-05-20T02:20:08;4.50;;;3.07;;
2338;SDS011;1180;51.438;6.978;2023-05-20T02:22:34;5.80;;;3.40;;
2338;SDS011;1180;51.438;6.978;2023-05-20T02:25:01;6.53;;;5.00;;
2338;SDS011;1180;51.438;6.978;2023-05-20T02:27:27;8.97;;;8.07;;
2338;SDS011;1180;51.438;6.978;2023-05-20T02:29:52;12.00;;;9.20;;
2338;SDS011;1180;51.438;6.978;2023-05-20T02:32:18;12.20;;;9.50;;
2338;SDS011;1180;51.438;6.978;2023-05-20T02:34:45;9.20;;;8.17;;
2338;SDS011;1180;51.438;6.978;2023-05-20T02:37:11;10.60;;;8.47;;
2338;SDS011;1180;51.438;6.978;2023-05-20T02:39:37;10.23;;;7.80;;
2338;SDS011;1180;51.438;6.978;2023-05-20T02:42:02;11.20;;;8.30;;
2338;SDS011;1180;51.438;6.978;2023-05-20T02:44:29;9.10;;;8.23;;
2338;SDS011;1180;51.438;6.978;2023-05-20T02:46:54;7.90;;;7.00;;
2338;SDS011;1180;51.438;6.978;2023-05-20T02:49:20;7.30;;;6.60;;
2338;SDS011;1180;51.438;6.978;2023-05-20T02:51:45;7.03;;;6.33;;
2338;SDS011;1180;51.438;6.978;2023-05-20T02:54:11;8.13;;;6.50;;
2338;SDS011;1180;51.438;6.978;2023-05-20T02:56:37;5.97;;;4.90;;
2338;SDS011;1180;51.438;6.978;2023-05-20T02:59:02;7.50;;;5.33;;
2338;SDS011;1180;51.438;6.978;2023-05-20T03:01:29;5.50;;;4.03;;
2338;SDS011;1180;51.438;6.978;2023-05-20T03:03:55;4.33;;;3.60;;
2338;SDS011;1180;51.438;6.978;2023-05-20T03:06:21;5.90;;;4.47;;
2338;SDS011;1180;51.438;6.978;2023-05-20T03:08:46;7.60;;;4.43;;
2338;SDS011;1180;51.438;6.978;2023-05-20T03:11:12;4.73;;;3.67;;
2338;SDS011;1180;51.438;6.978;2023-05-20T03:13:38;3.83;;;3.43;;
2338;SDS011;1180;51.438;6.978;2023-05-20T03:16:04;5.10;;;3.77;;
2338;SDS011;1180;51.438;6.978;2023-05-20T03:18:29;4.03;;;3.40;;
2338;SDS011;1180;51.438;6.978;2023-05-20T03:20:55;4.30;;;3.00;;
2338;SDS011;1180;51.438;6.978;2023-05-20T03:23:21;2.90;;;2.63;;
2338;SDS011;1180;51.438;6.978;2023-05-20T03:25:47;2.83;;;2.37;;
2338;SDS011;1180;51.438;6.978;2023-05-20T03:28:13;3.27;;;2.73;;
2338;SDS011;1180;51.438;6.978;2023-05-20T03:30:39;4.47;;;2.77;;
2338;SDS011;1180;51.438;6.978;2023-05-20T03:33:05;3.73;;;2.40;;
2338;SDS011;1180;51.438;6.978;2023-05-20T03:35:31;4.37;;;2.60;;
2338;SDS011;1180;51.438;6.978;2023-05-20T03:37:57;3.67;;;2.23;;
2338;SDS011;1180;51.438;6.978;2023-05-20T03:40:25;3.97;;;2.43;;
2338;SDS011;1180;51.438;6.978;2023-05-20T03:42:51;3.53;;;2.77;;
2338;SDS011;1180;51.438;6.978;2023-05-20T03:45:17;5.77;;;2.60;;
2338;SDS011;1180;51.438;6.978;2023-05-20T03:47:43;3.20;;;2.67;;
2338;SDS011;1180;51.438;6.978;2023-05-20T03:50:09;3.47;;;2.40;;
2338;SDS011;1180;51.438;6.978;2023-05-20T03:52:35;3.10;;;2.33;;
2338;SDS011;1180;51.438;6.978;2023-05-20T03:55:01;2.50;;;2.30;;
2338;SDS011;1180;51.438;6.978;2023-05-20T03:57:28;2.53;;;2.30;;
2338;SDS011;1180;51.438;6.978;2023-05-20T03:59:54;4.37;;;2.70;;
2338;SDS011;1180;51.438;6.978;2023-05-20T04:02:20;2.40;;;2.20;;
2338;SDS011;1180;51.438;6.978;2023-05-20T04:04:46;4.30;;;2.70;;
2338;SDS011;1180;51.438;6.978;2023-05-20T04:07:12;4.10;;;2.77;;
2338;SDS011;1180;51.438;6.978;2023-05-20T04:09:38;3.67;;;2.90;;
2338;SDS011;1180;51.438;6.978;2023-05-20T04:12:04;3.27;;;2.27;;
2338;SDS011;1180;51.438;6.978;2023-05-20T04:14:30;3.70;;;2.30;;
2338;SDS011;1180;51.438;6.978;2023-05-20T04:17:00;3.37;;;2.30;;
2338;SDS011;1180;51.438;6.978;2023-05-20T04:19:28;3.43;;;3.03;;
2338;SDS011;1180;51.438;6.978;2023-05-20T04:21:55;5.33;;;2.63;;
2338;SDS011;1180;51.438;6.978;2023-05-20T04:24:21;3.43;;;2.77;;
2338;SDS011;1180;51.438;6.978;2023-05-20T04:26:49;3.40;;;2.47;;
2338;SDS011;1180;51.438;6.978;2023-05-20T04:29:16;3.20;;;2.23;;
2338;SDS011;1180;51.438;6.978;2023-05-20T04:31:44;3.40;;;3.10;;
2338;SDS011;1180;51.438;6.978;2023-05-20T04:34:11;6.80;;;2.83;;
2338;SDS011;1180;51.438;6.978;2023-05-20T04:36:37;4.63;;;2.80;;
2338;SDS011;1180;51.438;6.978;2023-05-20T04:39:03;4.00;;;3.20;;
2338;SDS011;1180;51.438;6.978;2023-05-20T04:41:29;3.27;;;2.20;;
2338;SDS011;1180;51.438;6.978;2023-05-20T04:43:55;9.63;;;3.53;;
2338;SDS011;1180;51.438;6.978;2023-05-20T04:46:25;3.23;;;2.93;;
2338;SDS011;1180;51.438;6.978;2023-05-20T04:48:51;4.77;;;2.67;;
2338;SDS011;1180;51.438;6.978;2023-05-20T04:51:18;4.17;;;3.20;;
2338;SDS011;1180;51.438;6.978;2023-05-20T04:53:45;3.50;;;2.53;;
2338;SDS011;1180;51.438;6.978;2023-05-20T04:56:11;12.93;;;2.77;;
2338;SDS011;1180;51.438;6.978;2023-05-20T04:58:39;4.40;;;3.30;;
2338;SDS011;1180;51.438;6.978;2023-05-20T05:01:05;4.07;;;2.70;;
2338;SDS011;1180;51.438;6.978;2023-05-20T05:03:31;12.97;;;3.37;;
2338;SDS011;1180;51.438;6.978;2023-05-20T05:05:57;3.20;;;2.90;;
2338;SDS011;1180;51.438;6.978;2023-05-20T05:08:23;2.97;;;2.43;;
2338;SDS011;1180;51.438;6.978;2023-05-20T05:10:50;4.33;;;3.00;;
2338;SDS011;1180;51.438;6.978;2023-05-20T05:13:16;4.93;;;3.10;;
2338;SDS011;1180;51.438;6.978;2023-05-20T05:15:44;3.60;;;3.23;;
2338;SDS011;1180;51.438;6.978;2023-05-20T05:18:09;5.10;;;3.60;;
2338;SDS011;1180;51.438;6.978;2023-05-20T05:20:35;4.20;;;2.60;;
2338;SDS011;1180;51.438;6.978;2023-05-20T05:23:00;4.30;;;2.67;;
2338;SDS011;1180;51.438;6.978;2023-05-20T05:25:27;3.50;;;3.20;;
2338;SDS011;1180;51.438;6.978;2023-05-20T05:27:52;5.30;;;3.43;;
2338;SDS011;1180;51.438;6.978;2023-05-20T05:30:19;3.60;;;2.87;;
2338;SDS011;1180;51.438;6.978;2023-05-20T05:32:46;4.87;;;3.57;;
2338;SDS011;1180;51.438;6.978;2023-05-20T05:35:12;3.53;;;3.23;;
2338;SDS011;1180;51.438;6.978;2023-05-20T05:37:38;3.33;;;3.03;;
2338;SDS011;1180;51.438;6.978;2023-05-20T05:40:04;3.63;;;3.20;;
2338;SDS011;1180;51.438;6.978;2023-05-20T05:42:31;4.53;;;3.43;;
2338;SDS011;1180;51.438;6.978;2023-05-20T05:44:57;3.43;;;3.13;;
2338;SDS011;1180;51.438;6.978;2023-05-20T05:47:22;6.57;;;2.93;;
2338;SDS011;1180;51.438;6.978;2023-05-20T05:49:47;4.53;;;3.27;;
2338;SDS011;1180;51.438;6.978;2023-05-20T05:52:13;5.03;;;2.90;;
2338;SDS011;1180;51.438;6.978;2023-05-20T05:54:40;6.13;;;4.63;;
2338;SDS011;1180;51.438;6.978;2023-05-20T05:57:06;5.63;;;3.27;;
2338;SDS011;1180;51.438;6.978;2023-05-20T05:59:33;3.73;;;2.80;;
2338;SDS011;1180;51.438;6.978;2023-05-20T06:01:59;3.87;;;3.47;;
2338;SDS011;1180;51.438;6.978;2023-05-20T06:04:25;7.20;;;3.80;;
2338;SDS011;1180;51.438;6.978;2023-05-20T06:06:50;4.00;;;3.47;;
2338;SDS011;1180;51.438;6.978;2023-05-20T06:09:16;6.17;;;3.30;;
2338;SDS011;1180;51.438;6.978;2023-05-20T06:11:42;6.03;;;4.43;;
2338;SDS011;1180;51.438;6.978;2023-05-20T06:14:08;4.07;;;3.20;;
2338;SDS011;1180;51.438;6.978;2023-05-20T06:16:34;4.20;;;3.57;;
2338;SDS011;1180;51.438;6.978;2023-05-20T06:19:00;3.83;;;3.37;;
2338;SDS011;1180;51.438;6.978;2023-05-20T06:21:26;5.27;;;4.20;;
2338;SDS011;1180;51.438;6.978;2023-05-20T06:23:52;4.30;;;3.90;;
2338;SDS011;1180;51.438;6.978;2023-05-20T06:26:18;5.87;;;3.83;;
2338;SDS011;1180;51.438;6.978;2023-05-20T06:28:44;5.60;;;4.07;;
2338;SDS011;1180;51.438;6.978;2023-05-20T06:31:10;4.33;;;3.87;;
2338;SDS011;1180;51.438;6.978;2023-05-20T06:33:36;4.03;;;3.23;;
2338;SDS011;1180;51.438;6.978;2023-05-20T06:36:02;6.40;;;4.23;;
2338;SDS011;1180;51.438;6.978;2023-05-20T06:38:28;3.43;;;2.90;;
2338;SDS011;1180;51.438;6.978;2023-05-20T06:40:53;4.93;;;3.00;;
2338;SDS011;1180;51.438;6.978;2023-05-20T06:43:19;5.03;;;3.60;;
2338;SDS011;1180;51.438;6.978;2023-05-20T06:45:46;4.10;;;3.57;;
2338;SDS011;1180;51.438;6.978;2023-05-20T06:48:12;6.00;;;3.70;;
2338;SDS011;1180;51.438;6.978;2023-05-20T06:50:38;5.60;;;3.90;;
2338;SDS011;1180;51.438;6.978;2023-05-20T06:53:04;5.17;;;4.13;;
2338;SDS011;1180;51.438;6.978;2023-05-20T06:55:30;4.23;;;3.50;;
2338;SDS011;1180;51.438;6.978;2023-05-20T06:57:57;5.10;;;3.33;;
2338;SDS011;1180;51.438;6.978;2023-05-20T07:00:23;5.40;;;4.20;;
2338;SDS011;1180;51.438;6.978;2023-05-20T07:02:49;5.53;;;4.00;;
2338;SDS011;1180;51.438;6.978;2023-05-20T07:05:15;5.77;;;4.30;;
2338;SDS011;1180;51.438;6.978;2023-05-20T07:07:41;5.40;;;4.00;;
2338;SDS011;1180;51.438;6.978;2023-05-20T07:10:08;6.40;;;4.03;;
2338;SDS011;1180;51.438;6.978;2023-05-20T07:12:33;5.10;;;4.07;;
2338;SDS011;1180;51.438;6.978;2023-05-20T07:14:59;4.57;;;3.97;;
2338;SDS011;1180;51.438;6.978;2023-05-20T07:17:25;5.03;;;4.40;;
2338;SDS011;1180;51.438;6.978;2023-05-20T07:19:53;4.97;;;4.00;;
2338;SDS011;1180;51.438;6.978;2023-05-20T07:22:20;4.03;;;3.73;;
2338;SDS011;1180;51.438;6.978;2023-05-20T07:24:46;5.00;;;4.50;;
2338;SDS011;1180;51.438;6.978;2023-05-20T07:27:12;6.20;;;4.40;;
2338;SDS011;1180;51.438;6.978;2023-05-20T07:29:38;8.97;;;4.00;;
2338;SDS011;1180;51.438;6.978;2023-05-20T07:32:04;5.00;;;4.30;;
2338;SDS011;1180;51.438;6.978;2023-05-20T07:34:31;5.20;;;4.43;;
2338;SDS011;1180;51.438;6.978;2023-05-20T07:36:56;6.90;;;4.60;;
2338;SDS011;1180;51.438;6.978;2023-05-20T07:39:22;4.97;;;4.37;;
2338;SDS011;1180;51.438;6.978;2023-05-20T07:41:48;6.30;;;4.53;;
2338;SDS011;1180;51.438;6.978;2023-05-20T07:44:14;7.20;;;4.37;;
2338;SDS011;1180;51.438;6.978;2023-05-20T07:46:43;4.73;;;3.70;;
2338;SDS011;1180;51.438;6.978;2023-05-20T07:49:09;4.27;;;3.97;;
2338;SDS011;1180;51.438;6.978;2023-05-20T07:51:35;5.80;;;5.17;;
2338;SDS011;1180;51.438;6.978;2023-05-20T07:54:03;4.07;;;3.70;;
2338;SDS011;1180;51.438;6.978;2023-05-20T07:56:29;5.30;;;4.43;;
2338;SDS011;1180;51.438;6.978;2023-05-20T07:58:55;6.07;;;4.70;;
2338;SDS011;1180;51.438;6.978;2023-05-20T08:01:27;4.87;;;4.47;;
2338;SDS011;1180;51.438;6.978;2023-05-20T08:03:53;4.60;;;3.93;;
2338;SDS011;1180;51.438;6.978;2023-05-20T08:06:19;5.03;;;4.33;;
2338;SDS011;1180;51.438;6.978;2023-05-20T08:08:46;6.47;;;5.13;;
2338;SDS011;1180;51.438;6.978;2023-05-20T08:11:11;5.40;;;4.37;;
2338;SDS011;1180;51.438;6.978;2023-05-20T08:13:38;5.63;;;4.43;;
2338;SDS011;1180;51.438;6.978;2023-05-20T08:16:04;6.70;;;5.17;;
2338;SDS011;1180;51.438;6.978;2023-05-20T08:18:30;6.90;;;5.13;;
2338;SDS011;1180;51.438;6.978;2023-05-20T08:20:57;6.93;;;4.83;;
2338;SDS011;1180;51.438;6.978;2023-05-20T08:23:24;5.70;;;5.10;;
2338;SDS011;1180;51.438;6.978;2023-05-20T08:25:50;7.10;;;5.17;;
2338;SDS011;1180;51.438;6.978;2023-05-20T08:28:16;4.80;;;4.40;;
2338;SDS011;1180;51.438;6.978;2023-05-20T08:30:42;13.53;;;5.00;;
2338;SDS011;1180;51.438;6.978;2023-05-20T08:33:08;6.40;;;4.50;;
2338;SDS011;1180;51.438;6.978;2023-05-20T08:35:36;4.63;;;4.20;;
2338;SDS011;1180;51.438;6.978;2023-05-20T08:38:04;11.70;;;6.20;;
2338;SDS011;1180;51.438;6.978;2023-05-20T08:40:30;6.60;;;5.23;;
2338;SDS011;1180;51.438;6.978;2023-05-20T08:42:56;8.10;;;5.57;;
2338;SDS011;1180;51.438;6.978;2023-05-20T08:45:23;7.30;;;4.40;;
2338;SDS011;1180;51.438;6.978;2023-05-20T08:47:53;6.53;;;5.10;;
2338;SDS011;1180;51.438;6.978;2023-05-20T08:50:19;6.47;;;5.20;;
2338;SDS011;1180;51.438;6.978;2023-05-20T08:52:46;8.37;;;5.23;;
2338;SDS011;1180;51.438;6.978;2023-05-20T08:55:23;6.00;;;5.40;;
2338;SDS011;1180;51.438;6.978;2023-05-20T08:57:51;5.77;;;5.17;;
2338;SDS011;1180;51.438;6.978;2023-05-20T09:00:19;5.60;;;5.07;;
2338;SDS011;1180;51.438;6.978;2023-05-20T09:02:47;7.40;;;5.03;;
2338;SDS011;1180;51.438;6.978;2023-05-20T09:05:14;5.67;;;4.40;;
2338;SDS011;1180;51.438;6.978;2023-05-20T09:07:41;7.90;;;5.80;;
2338;SDS011;1180;51.438;6.978;2023-05-20T09:10:07;5.63;;;5.17;;
2338;SDS011;1180;51.438;6.978;2023-05-20T09:12:33;7.70;;;5.80;;
2338;SDS011;1180;51.438;6.978;2023-05-20T09:15:00;8.63;;;6.50;;
2338;SDS011;1180;51.438;6.978;2023-05-20T09:17:25;7.37;;;5.73;;
2338;SDS011;1180;51.438;6.978;2023-05-20T09:19:51;6.53;;;4.70;;
2338;SDS011;1180;51.438;6.978;2023-05-20T09:22:21;7.30;;;6.50;;
2338;SDS011;1180;51.438;6.978;2023-05-20T09:24:49;7.27;;;6.50;;
2338;SDS011;1180;51.438;6.978;2023-05-20T09:27:16;6.70;;;5.97;;
2338;SDS011;1180;51.438;6.978;2023-05-20T09:29:42;9.33;;;7.20;;
2338;SDS011;1180;51.438;6.978;2023-05-20T09:32:09;9.13;;;6.90;;
2338;SDS011;1180;51.438;6.978;2023-05-20T09:34:37;7.37;;;6.73;;
2338;SDS011;1180;51.438;6.978;2023-05-20T09:37:04;9.43;;;6.50;;
2338;SDS011;1180;51.438;6.978;2023-05-20T09:39:32;6.80;;;6.20;;
2338;SDS011;1180;51.438;6.978;2023-05-20T09:42:06;8.07;;;7.17;;
2338;SDS011;1180;51.438;6.978;2023-05-20T09:44:40;8.63;;;5.90;;
2338;SDS011;1180;51.438;6.978;2023-05-20T09:47:07;6.17;;;5.67;;
2338;SDS011;1180;51.438;6.978;2023-05-20T09:49:33;8.13;;;6.43;;
2338;SDS011;1180;51.438;6.978;2023-05-20T09:52:01;8.03;;;6.53;;
2338;SDS011;1180;51.438;6.978;2023-05-20T09:54:28;8.27;;;6.30;;
2338;SDS011;1180;51.438;6.978;2023-05-20T09:56:56;8.23;;;6.10;;
2338;SDS011;1180;51.438;6.978;2023-05-20T09:59:23;8.00;;;6.60;;
2338;SDS011;1180;51.438;6.978;2023-05-20T10:01:53;8.10;;;6.90;;
2338;SDS011;1180;51.438;6.978;2023-05-20T10:04:19;9.60;;;6.87;;
2338;SDS011;1180;51.438;6.978;2023-05-20T10:09:51;6.53;;;5.37;;
2338;SDS011;1180;51.438;6.978;2023-05-20T10:15:30;6.03;;;5.47;;
2338;SDS011;1180;51.438;6.978;2023-05-20T10:18:13;6.77;;;5.77;;
2338;SDS011;1180;51.438;6.978;2023-05-20T10:20:46;7.50;;;6.53;;
2338;SDS011;1180;51.438;6.978;2023-05-20T10:23:22;7.60;;;6.00;;
2338;SDS011;1180;51.438;6.978;2023-05-20T10:25:49;6.63;;;5.67;;
2338;SDS011;1180;51.438;6.978;2023-05-20T10:28:23;9.47;;;7.40;;
2338;SDS011;1180;51.438;6.978;2023-05-20T10:31:01;7.87;;;6.70;;
2338;SDS011;1180;51.438;6.978;2023-05-20T10:33:28;8.13;;;6.63;;
2338;SDS011;1180;51.438;6.978;2023-05-20T10:35:58;8.43;;;7.07;;
2338;SDS011;1180;51.438;6.978;2023-05-20T10:38:25;7.20;;;5.50;;
2338;SDS011;1180;51.438;6.978;2023-05-20T10:40:51;6.37;;;5.73;;
2338;SDS011;1180;51.438;6.978;2023-05-20T10:43:26;8.20;;;6.10;;
2338;SDS011;1180;51.438;6.978;2023-05-20T10:45:53;7.43;;;6.73;;
2338;SDS011;1180;51.438;6.978;2023-05-20T10:50:50;6.70;;;6.00;;
2338;SDS011;1180;51.438;6.978;2023-05-20T10:53:24;6.67;;;5.97;;
2338;SDS011;1180;51.438;6.978;2023-05-20T10:55:51;7.00;;;6.30;;
2338;SDS011;1180;51.438;6.978;2023-05-20T10:58:22;5.80;;;5.13;;
2338;SDS011;1180;51.438;6.978;2023-05-20T11:00:51;9.50;;;5.90;;
2338;SDS011;1180;51.438;6.978;2023-05-20T11:03:21;6.80;;;5.67;;
2338;SDS011;1180;51.438;6.978;2023-05-20T11:05:47;6.80;;;6.20;;
2338;SDS011;1180;51.438;6.978;2023-05-20T11:08:13;8.57;;;7.07;;
2338;SDS011;1180;51.438;6.978;2023-05-20T11:10:40;7.10;;;6.40;;
2338;SDS011;1180;51.438;6.978;2023-05-20T11:13:06;7.70;;;6.80;;
2338;SDS011;1180;51.438;6.978;2023-05-20T11:15:33;9.00;;;6.67;;
2338;SDS011;1180;51.438;6.978;2023-05-20T11:18:03;7.30;;;5.57;;
2338;SDS011;1180;51.438;6.978;2023-05-20T11:20:29;7.30;;;6.47;;
2338;SDS011;1180;51.438;6.978;2023-05-20T11:22:59;6.87;;;6.23;;
2338;SDS011;1180;51.438;6.978;2023-05-20T11:25:26;7.27;;;6.57;;
2338;SDS011;1180;51.438;6.978;2023-05-20T11:27:52;6.43;;;5.37;;
2338;SDS011;1180;51.438;6.978;2023-05-20T11:30:18;5.80;;;5.10;;
2338;SDS011;1180;51.438;6.978;2023-05-20T11:33:00;7.90;;;5.97;;
2338;SDS011;1180;51.438;6.978;2023-05-20T11:35:31;6.40;;;5.37;;
2338;SDS011;1180;51.438;6.978;2023-05-20T11:38:01;6.50;;;4.83;;
2338;SDS011;1180;51.438;6.978;2023-05-20T11:40:32;5.43;;;4.47;;
2338;SDS011;1180;51.438;6.978;2023-05-20T11:43:00;6.20;;;5.53;;
2338;SDS011;1180;51.438;6.978;2023-05-20T11:45:37;7.87;;;5.57;;
2338;SDS011;1180;51.438;6.978;2023-05-20T11:48:05;4.93;;;4.53;;
2338;SDS011;1180;51.438;6.978;2023-05-20T11:50:35;8.87;;;7.97;;
2338;SDS011;1180;51.438;6.978;2023-05-20T11:53:06;10.30;;;6.53;;
2338;SDS011;1180;51.438;6.978;2023-05-20T11:55:33;6.63;;;5.90;;
2338;SDS011;1180;51.438;6.978;2023-05-20T11:58:15;7.80;;;6.70;;
2338;SDS011;1180;51.438;6.978;2023-05-20T12:00:43;7.13;;;6.00;;
2338;SDS011;1180;51.438;6.978;2023-05-20T12:03:09;7.20;;;6.50;;
2338;SDS011;1180;51.438;6.978;2023-05-20T12:05:35;6.63;;;5.90;;
2338;SDS011;1180;51.438;6.978;2023-05-20T12:08:01;7.90;;;7.10;;
2338;SDS011;1180;51.438;6.978;2023-05-20T12:10:28;6.30;;;5.70;;
2338;SDS011;1180;51.438;6.978;2023-05-20T12:12:54;6.03;;;5.10;;
2338;SDS011;1180;51.438;6.978;2023-05-20T12:15:20;7.37;;;6.57;;
2338;SDS011;1180;51.438;6.978;2023-05-20T12:17:47;6.63;;;6.03;;
2338;SDS011;1180;51.438;6.978;2023-05-20T12:20:14;6.20;;;5.23;;
2338;SDS011;1180;51.438;6.978;2023-05-20T12:22:42;6.63;;;5.80;;
2338;SDS011;1180;51.438;6.978;2023-05-20T12:25:12;6.93;;;6.23;;
2338;SDS011;1180;51.438;6.978;2023-05-20T12:27:40;5.90;;;5.30;;
2338;SDS011;1180;51.438;6.978;2023-05-20T12:30:07;5.57;;;5.07;;
2338;SDS011;1180;51.438;6.978;2023-05-20T12:32:37;4.80;;;4.40;;
2338;SDS011;1180;51.438;6.978;2023-05-20T12:35:03;5.40;;;4.90;;
2338;SDS011;1180;51.438;6.978;2023-05-20T12:37:29;5.80;;;5.30;;
2338;SDS011;1180;51.438;6.978;2023-05-20T12:39:55;5.17;;;4.67;;
2338;SDS011;1180;51.438;6.978;2023-05-20T12:42:21;5.13;;;4.63;;
2338;SDS011;1180;51.438;6.978;2023-05-20T12:44:47;6.37;;;4.77;;
2338;SDS011;1180;51.438;6.978;2023-05-20T12:47:13;5.20;;;4.70;;
2338;SDS011;1180;51.438;6.978;2023-05-20T12:49:39;5.60;;;4.90;;
2338;SDS011;1180;51.438;6.978;2023-05-20T12:52:05;4.90;;;4.50;;
2338;SDS011;1180;51.438;6.978;2023-05-20T12:54:32;4.70;;;4.30;;
2338;SDS011;1180;51.438;6.978;2023-05-20T12:56:58;3.70;;;3.40;;
2338;SDS011;1180;51.438;6.978;2023-05-20T12:59:24;4.17;;;3.87;;
2338;SDS011;1180;51.438;6.978;2023-05-20T13:01:50;5.10;;;4.60;;
2338;SDS011;1180;51.438;6.978;2023-05-20T13:04:16;4.67;;;4.10;;
2338;SDS011;1180;51.438;6.978;2023-05-20T13:06:42;4.90;;;4.40;;
2338;SDS011;1180;51.438;6.978;2023-05-20T13:09:08;6.30;;;4.87;;
2338;SDS011;1180;51.438;6.978;2023-05-20T13:11:34;9.10;;;3.97;;
2338;SDS011;1180;51.438;6.978;2023-05-20T13:14:00;16.27;;;5.67;;
2338;SDS011;1180;51.438;6.978;2023-05-20T13:16:27;6.50;;;5.23;;
2338;SDS011;1180;51.438;6.978;2023-05-20T13:18:53;7.63;;;5.53;;
2338;SDS011;1180;51.438;6.978;2023-05-20T13:21:19;5.33;;;4.83;;
2338;SDS011;1180;51.438;6.978;2023-05-20T13:23:44;6.37;;;4.67;;
2338;SDS011;1180;51.438;6.978;2023-05-20T13:26:10;8.03;;;4.33;;
2338;SDS011;1180;51.438;6.978;2023-05-20T13:28:36;5.57;;;4.03;;
2338;SDS011;1180;51.438;6.978;2023-05-20T13:31:03;4.43;;;3.93;;
2338;SDS011;1180;51.438;6.978;2023-05-20T13:33:30;4.57;;;4.27;;
2338;SDS011;1180;51.438;6.978;2023-05-20T13:35:56;4.20;;;3.90;;
2338;SDS011;1180;51.438;6.978;2023-05-20T13:38:22;4.30;;;4.00;;
2338;SDS011;1180;51.438;6.978;2023-05-20T13:40:48;7.50;;;4.13;;
2338;SDS011;1180;51.438;6.978;2023-05-20T13:43:14;5.13;;;4.63;;
2338;SDS011;1180;51.438;6.978;2023-05-20T13:45:41;4.63;;;4.13;;
2338;SDS011;1180;51.438;6.978;2023-05-20T13:48:07;3.87;;;3.53;;
2338;SDS011;1180;51.438;6.978;2023-05-20T13:50:33;4.93;;;4.43;;
2338;SDS011;1180;51.438;6.978;2023-05-20T13:52:59;6.07;;;5.10;;
2338;SDS011;1180;51.438;6.978;2023-05-20T13:55:25;4.20;;;3.90;;
2338;SDS011;1180;51.438;6.978;2023-05-20T13:57:52;5.17;;;4.10;;
2338;SDS011;1180;51.438;6.978;2023-05-20T14:00:18;3.87;;;3.30;;
2338;SDS011;1180;51.438;6.978;2023-05-20T14:02:44;4.57;;;4.17;;
2338;SDS011;1180;51.438;6.978;2023-05-20T14:05:11;4.50;;;4.10;;
2338;SDS011;1180;51.438;6.978;2023-05-20T14:07:37;4.60;;;4.20;;
2338;SDS011;1180;51.438;6.978;2023-05-20T14:10:03;4.00;;;3.60;;
2338;SDS011;1180;51.438;6.978;2023-05-20T14:12:30;4.10;;;3.70;;
2338;SDS011;1180;51.438;6.978;2023-05-20T14:14:56;5.33;;;3.73;;
2338;SDS011;1180;51.438;6.978;2023-05-20T14:17:21;4.83;;;3.67;;
2338;SDS011;1180;51.438;6.978;2023-05-20T14:19:47;3.80;;;3.57;;
2338;SDS011;1180;51.438;6.978;2023-05-20T14:22:12;5.07;;;4.17;;
2338;SDS011;1180;51.438;6.978;2023-05-20T14:24:39;3.40;;;3.10;;
2338;SDS011;1180;51.438;6.978;2023-05-20T14:27:05;7.20;;;3.33;;
2338;SDS011;1180;51.438;6.978;2023-05-20T14:29:30;3.40;;;3.10;;
2338;SDS011;1180;51.438;6.978;2023-05-20T14:31:56;3.57;;;3.27;;
2338;SDS011;1180;51.438;6.978;2023-05-20T14:34:21;4.93;;;3.50;;
2338;SDS011;1180;51.438;6.978;2023-05-20T14:36:46;4.13;;;3.53;;
2338;SDS011;1180;51.438;6.978;2023-05-20T14:39:12;4.67;;;3.33;;
2338;SDS011;1180;51.438;6.978;2023-05-20T14:41:37;3.33;;;3.03;;
2338;SDS011;1180;51.438;6.978;2023-05-20T14:44:03;3.20;;;2.90;;
2338;SDS011;1180;51.438;6.978;2023-05-20T14:46:28;3.90;;;3.50;;
2338;SDS011;1180;51.438;6.978;2023-05-20T14:48:54;5.10;;;4.00;;
2338;SDS011;1180;51.438;6.978;2023-05-20T14:51:20;6.37;;;4.40;;
2338;SDS011;1180;51.438;6.978;2023-05-20T14:53:46;7.00;;;3.80;;
2338;SDS011;1180;51.438;6.978;2023-05-20T14:56:11;4.23;;;3.83;;
2338;SDS011;1180;51.438;6.978;2023-05-20T14:58:37;4.37;;;3.67;;
2338;SDS011;1180;51.438;6.978;2023-05-20T15:01:02;5.20;;;3.57;;
2338;SDS011;1180;51.438;6.978;2023-05-20T15:03:28;4.90;;;4.40;;
2338;SDS011;1180;51.438;6.978;2023-05-20T15:05:53;4.77;;;3.87;;
2338;SDS011;1180;51.438;6.978;2023-05-20T15:08:19;4.00;;;3.60;;
2338;SDS011;1180;51.438;6.978;2023-05-20T15:10:44;6.37;;;5.07;;
2338;SDS011;1180;51.438;6.978;2023-05-20T15:13:10;6.57;;;4.83;;
2338;SDS011;1180;51.438;6.978;2023-05-20T15:15:35;4.70;;;4.30;;
2338;SDS011;1180;51.438;6.978;2023-05-20T15:18:00;4.23;;;3.83;;
2338;SDS011;1180;51.438;6.978;2023-05-20T15:20:26;3.97;;;3.57;;
2338;SDS011;1180;51.438;6.978;2023-05-20T15:22:52;4.07;;;3.77;;